Timeline UpdatesTrip UpdatesNews PostsPvt PostsTravel TipsAdmin PostsConv PostsFollowed PostsChat RequestsBlog PostsPNR Posts

Disclaimer
Search
 
 
Fri Apr 25, 2014 09:43:51 ISTHomeTrainsΣChainsAtlasPNRForumGalleryNewsFAQTripsMembersLoginFeedback
No Recent News for this Train
Other Trains in the News **new
Latest...
.
Sat Oct 19, 2013 (10:20AM)
⇐ Return Journey: Train# 12512

12511/Raptisagar SF Express

Nov 01 2013 (7:36AM)
Change Departure Station:
Change Arrival Station:
Post a Train Travel TipPost a Train Travel Tip **new
Post a Comment/Question/Picture/VideoPost a Comment/Question/Picture/Video
Pantry/Catering
✓ Pantry Car Avbl
✓ Catering Avbl
Loco/Rake Reversals
MAS/Chennai Central (12); LJN/Lucknow Junction (6); SRR/Shoranur Junction (7);
RSA - Rake Sharing
12511/12512/12589/12590/12591/12592
Rake/Coach Composition
Loco- SLR-UR-UR-A1-B4-B3-B2-B1-PC-S12-S11-S10-S9-S8-S7-S6-S5-S4-S3-S2-S1-UR-UR-SLR. ; 2AC-1, 3AC-4, PC-1, SL-12, UR-4, SLR-2= 24 COACHES.; B4 added as per http://indiarailinfo.com/pnr/post/635962
Loco
#WDM 3A GondaTill Jhansi . #WAP 4 ED/AJJ/RPM
News    PNR    Forum    Time-Table    Availability    Fare Chart    Map    Arr/Dep History    Trips    Gallery    ΣChains    X/O    Timeline    
Travel Time: 58h 55m    59 halts    Distance: 3248 km    Avg Speed: 55 km/hr
Type: SuperFast
Zone: NER/North Eastern
Departs @ 06:35 (Avg 2m late)
Platform# 9
S   TF 
Gorakhpur Junction/GKP 
Arrives @ 17:30 +2 nights (Avg 25m late)
Platform# 1
S T   S
Trivandrum Central/TVC 

59 halts. 521 intermediate Stations between Gorakhpur Junction and Trivandrum Central

Show ALL intermediate Stations  Show Old Time-Table

#CodeStation NameX/OArrivesAvgDepartsAvgHaltPFDay#KmSpeedElevZoneAddress
1GKP»Gorakhpur Junction (10)»  -06:35+2910.05784mNERGorakhpur 273001, Uttar Pradesh
2KLDKhalilabad (3)  07:11+1007:13+102m1133.96686mNERKhalilabad- 272175, Uttar Pradesh
3BSTBasti (4)  07:40+1307:45+135m1163.57390mNERBasti 272001, Uttar Pradesh
4MURMankapur Junction (5)O  08:35+908:37+92m31124.073104mNERDistrict Gonda, Uttar Pradesh
5GDGonda Junction (3)  09:00+1309:05+135m11151.965110mNERGonda 271001, Uttar Pradesh
6BBKBarabanki Junction (4)  10:27+710:29+82m11241.255122mNRPin-225001, Uttar Pradesh
7BNZBadshahnagar (2)  10:56+1110:58+112m11265.821116mNERLucknow, Uttar Pradesh
8LJNLucknow Junction (6)X11:30+611:50+720m21276.863126mNERLucknow, Uttar Pradesh
9ONUnnao Junction (5)X  12:41+1812:43+182m21330.731129mNRUnnao, Uttar Pradesh
10CNBKanpur Central (10)  13:17+2813:22+335m41348.164128mNCRKanpur, Uttar Pradesh
11PHNPokhrayan (2)  14:17+5514:19+562m11406.680133mNCRPukhrayan, Uttar Pradesh
12ORAIOrai (3)  14:55+1:0815:00+1:105m21454.465139mNCROrai(05162-252206), Uttar Pradesh
13JHSJhansi Junction (7)X16:45+1:1017:00+1:1915m21568.387259mNCRJhansi, Uttar Pradesh
14LARLalitpur (3)  18:02+1:3618:04+1:362m11658.767373mNCRLalitpur, Uttar Pradesh
15BPLBhopal Junction (6)X  21:05+1:1821:15+1:1510m11860.252497mWCRBhopal, Madhya Pradesh
16ETItarsi Junction (7)  23:00+1:2323:05+1:255m21951.968329mWCRItarsi 461111, Madhya Pradesh
17GDYAGhoradongri (3)  00:07+1:2800:09+1:292m--21022.249410mCRBetul, Madhya Pradesh
18BZUBetul (3)X  00:53+1:3300:55+1:342m--21058.157644mCRBetul, Madhya Pradesh
19AMLAAmla Junction (5)XO  01:19+1:3101:22+1:313m--21081.063733mCRAmla Distt. Betul, Madhya Pradesh
20PARPandhurna (2)X  02:23+1:3402:25+1:362m--21144.760481mCRDistt: Chhindwara, Madhya Pradesh
21NGPNagpur Junction (9)X  04:10+1:2204:20+1:2410m221249.079314mCRNagpur 440001, Maharashtra
22SEGMSewagram Junction (5)  05:18+1:3305:20+1:342m--21325.271264mCRWardha, Maharashtra
23HGTHinganghatX  05:48+1:3405:50+1:352m--21358.378228mCRHinganghat, Maharashtra
24CDChandrapur Maharashtra (3)  06:56+1:3806:58+1:392m--21443.812194mCRChandrapur 442401, Maharashtra
25BPQBalharshah Junction (5)XO08:05+5908:35+4930m321457.685188mCRBallarpur. Ph : 07172 - 240341, Maharashtra
26SKZRSirpur Kaghaznagar (3)XO  09:24+1:0109:26+1:032m221527.364181mSCRKaghaznagar, Andhra Pradesh
27BPABellampalli (3)  10:02+1:0110:04+1:002m221565.885205mSCRBelampalli Tel:.08735 223298, Andhra Pradesh
28MCIManchiryal (3)O  10:18+1:0510:20+1:042m221585.7103159mSCRMancherial. Ph : 08736 - 254445, Andhra Pradesh
29RDMRamagundam (3)X  10:28+1:1510:30+1:142m221599.465170mSCRKarimnagar Dist. Ph : 08728 - 255237, Andhra Pradesh
30WLWarangal (3)  12:03+1:2512:05+1:262m121700.572271mSCRWarangal., Andhra Pradesh
31KMTKhammam (2)X  13:35+1:0913:37+1:082m121808.145118mSCRKhammam 507001, Andhra Pradesh
32BZAVijayawada Junction (10)X  15:50+1:0316:05+1:0415m--21908.57424mSCRVijayawada 520001, Andhra Pradesh
33CLXChirala (4)X  17:17+1:1617:19+1:162m--21997.4698mSCRChirala, Andhra Pradesh
34OGLOngole (3)  18:02+1:1318:04+1:142m322046.89312mSCROngole, Andhra Pradesh
35NLRNellore (4)X  19:19+4619:20+421m322163.52521mSCRNellore, Andhra Pradesh
36GDRGudur Junction (3)  20:53+4220:55+402m122202.05719mSCRGudur, Andhra Pradesh
37MASChennai Central (12)X23:20+3423:45+3525m622339.4659mSRChennai 600003, Tamil Nadu
38KPDKatpadi Junction (5)X  01:45+3301:50+325m132468.859213mSRVellore 632007, Tamil Nadu
39JTJJolarpettai Junction (5)X  03:15+2203:20+235m--32552.785405mSRJolarpettai, Tamil Nadu
40SASalem Junction (6)X  04:45+3504:50+365m--32672.849283mSRSalem, Tamil Nadu
41EDErode Junction (4)X  06:05+2306:15+3510m132734.670175mSRErode ph.no: 0424-2256111, Tamil Nadu
42TUPTiruppur (2)X  06:58+3407:00+342m132784.561305mSRTiruppur. Ph:0421-2200450, Tamil Nadu
43CBECoimbatore Main Junction (6)X  07:50+3007:55+315m132835.148411mSRCoimbatore 641001, Tamil Nadu
44PGTPalakkad Junction (4)XO  09:05+2909:10+305m232890.86784mSRPalghat Tel: 0491 2555231, Kerala
45OTPOttappalam (2)X  09:38+3009:40+302m132922.31930mSROttapalam, Kerala
46SRRShoranur Junction (7)X10:20+2110:30+3310m532935.15526mSRShoranur ph.no 0466-2222913, Kerala
47WKIWadakkanchery (2)X  10:48+4110:50+412m132951.73640mSRWadackanchery, Kerala
48TCRThrissur (4)  11:17+3611:20+373m132968.1536mSRThrissur Tel: 0487 2423150, Kerala
49IJKIrinjalakkuda (2)  11:47+3311:48+331m--32991.87718mSRKalletumkara, Kerala
50CKIChalakkudy (3)X  11:53+3511:55+352m132998.3709mSRPh: 0480- 2701368, Kerala
51AFKAngamaly for Kalady (3)  12:08+4012:10+402m--33013.55516mSRPhone: 0484-2452340, Kerala
52AWYAluva (3)  12:20+4112:23+403m133022.73212mSRPh: 0484-2624141, Kerala
53ERNErnakulam Town (North) (2)X  12:55+3012:57+302m233039.5129mSRTel: 0484 2395198, Kerala
54ERSErnakulam Junction (South) (6)  13:10+2813:15+305m433042.1473mSRErnakulam 682016, Kerala
55SRTLCherthala (3)  13:58+3614:00+382m233075.5457mSRPh: 0478- 2812500, Kerala
56ALLPAlappuzha (3)  14:32+3014:35+313m133099.6568mSRPh:0477-2253965, Kerala
57AMPAAmbalappuzha (1)  14:48+3114:50+322m133111.8606mSRph 0477-2272620, Kerala
58HADHarippad (2)  15:08+3415:10+332m--33129.7617mSRHaripad 0479-2412714, Kerala
59KYJKayamkulam Junction (5)  15:23+3715:25+372m233143.05411mSRAlappuzha Ph;0479-2442042, Kerala
60QLNKollam Junction (6)  16:10+3116:15+315m133183.85216mSRKollam 0474-2746194, Kerala
61TVC•Trivandrum Central (5)•  17:30+25-133248.4-12mSRPh: 0471-2321622, Kerala
Scroll to Top
Scroll to Bottom